Harpers Ferry, WV (25425)

11:28 PM EDT on August 24, 2016 (GMT -0400)
Meadowbrook | | Change Station

Elev 465 ft 39.34 °N, 77.79 °W | Updated 7 seconds ago

Scattered Clouds
Scattered Clouds
74.6 °F
Feels Like 77 °F
N
3.5
Wind Variable Wind from South
Gusts 6.2 mph

Today
High -- | Low -- °F
--% Chance of Precip.
Yesterday
High -- | Low -- °F
Precip. -- in
Pressure 30.14 in
Visibility 10.0 miles
Clouds Scattered Clouds 7000 ft
Heat Index 77 °F
Dew Point 62 °F
Humidity 66%
Rainfall 0.00 in
Snow Depth Not available.
6:32 AM 7:53 PM
Waning Gibbous, 50% visible
METAR KMRB 250253Z 00000KT 10SM SCT070 23/19 A3016 RMK AO2 SLP207 T02280189 50002
Pressure 30.14 in
Visibility 10.0 miles
Clouds Scattered Clouds 7000 ft
Heat Index 77 °F
Dew Point 62 °F
Humidity 66%
Rainfall 0.00 in
Snow Depth Not available.
6:32 AM 7:53 PM
Waning Gibbous, 50% visible
METAR KMRB 250253Z 00000KT 10SM SCT070 23/19 A3016 RMK AO2 SLP207 T02280189 50002

10-Day Weather Forecast

Almanac

Astronomy

Aug. 24, 2016 Rise Set
Actual Time
Civil Twilight
Nautical Twilight
Astronomical Twilight
Moon
Length of Visible Light
Length of Day
Tomorrow will be .
, % of the Moon is Illuminated

Today's Extremes

State Highs State Lows

Community

WunderPhotos

Upload Photos

1,934,785 photos uploaded!

WunderBlog® & News

Nearby

Air Quality

  Air Quality AQ Index Pollutant
Not available.

Snow Depth

Station Depth Elevation

Earthquake Activity

City Distance Mag. Time & Date
Minimum magnitude displayed is 2.5.

Coastal Water Temperatures

Place Temperature

Stations

Nearby Weather Stations

Station Location Temp. Windchill Dew Point Humidity Wind Precip. Elev Updated Type
                   

Watches & Warnings

There are currently no watches in effect.